sensor_id;sensor_type;location;lat;lon;timestamp;P1;durP1;ratioP1;P2;durP2;ratioP2
7525;SDS011;3804;50.860;6.208;2023-06-04T00:01:27;3.60;;;1.43;;
7525;SDS011;3804;50.860;6.208;2023-06-04T00:03:54;3.13;;;1.77;;
7525;SDS011;3804;50.860;6.208;2023-06-04T00:06:21;3.40;;;1.60;;
7525;SDS011;3804;50.860;6.208;2023-06-04T00:08:47;1.93;;;1.40;;
7525;SDS011;3804;50.860;6.208;2023-06-04T00:11:14;2.37;;;1.30;;
7525;SDS011;3804;50.860;6.208;2023-06-04T00:13:42;2.70;;;1.83;;
7525;SDS011;3804;50.860;6.208;2023-06-04T00:16:08;2.07;;;1.83;;
7525;SDS011;3804;50.860;6.208;2023-06-04T00:18:35;2.10;;;1.50;;
7525;SDS011;3804;50.860;6.208;2023-06-04T00:21:02;4.13;;;1.77;;
7525;SDS011;3804;50.860;6.208;2023-06-04T00:23:29;2.90;;;1.60;;
7525;SDS011;3804;50.860;6.208;2023-06-04T00:25:55;2.93;;;1.60;;
7525;SDS011;3804;50.860;6.208;2023-06-04T00:28:23;2.97;;;1.47;;
7525;SDS011;3804;50.860;6.208;2023-06-04T00:30:49;2.07;;;1.50;;
7525;SDS011;3804;50.860;6.208;2023-06-04T00:33:17;3.70;;;1.60;;
7525;SDS011;3804;50.860;6.208;2023-06-04T00:35:44;2.57;;;1.40;;
7525;SDS011;3804;50.860;6.208;2023-06-04T00:38:11;3.20;;;1.50;;
7525;SDS011;3804;50.860;6.208;2023-06-04T00:40:38;2.00;;;1.50;;
7525;SDS011;3804;50.860;6.208;2023-06-04T00:43:05;3.67;;;1.80;;
7525;SDS011;3804;50.860;6.208;2023-06-04T00:45:32;3.57;;;1.30;;
7525;SDS011;3804;50.860;6.208;2023-06-04T00:47:59;3.07;;;1.57;;
7525;SDS011;3804;50.860;6.208;2023-06-04T00:50:27;3.17;;;1.30;;
7525;SDS011;3804;50.860;6.208;2023-06-04T00:52:53;3.00;;;1.40;;
7525;SDS011;3804;50.860;6.208;2023-06-04T00:55:20;2.13;;;1.70;;
7525;SDS011;3804;50.860;6.208;2023-06-04T00:57:48;2.70;;;1.50;;
7525;SDS011;3804;50.860;6.208;2023-06-04T01:00:14;3.60;;;1.93;;
7525;SDS011;3804;50.860;6.208;2023-06-04T01:02:42;3.63;;;1.30;;
7525;SDS011;3804;50.860;6.208;2023-06-04T01:07:37;2.17;;;1.40;;
7525;SDS011;3804;50.860;6.208;2023-06-04T01:10:04;2.80;;;1.40;;
7525;SDS011;3804;50.860;6.208;2023-06-04T01:12:32;3.57;;;1.70;;
7525;SDS011;3804;50.860;6.208;2023-06-04T01:14:59;3.93;;;1.70;;
7525;SDS011;3804;50.860;6.208;2023-06-04T01:17:32;2.53;;;1.70;;
7525;SDS011;3804;50.860;6.208;2023-06-04T01:20:12;2.80;;;1.47;;
7525;SDS011;3804;50.860;6.208;2023-06-04T01:25:10;6.80;;;1.70;;
7525;SDS011;3804;50.860;6.208;2023-06-04T01:27:38;3.63;;;1.43;;
7525;SDS011;3804;50.860;6.208;2023-06-04T01:30:08;5.87;;;1.90;;
7525;SDS011;3804;50.860;6.208;2023-06-04T01:32:36;3.97;;;1.70;;
7525;SDS011;3804;50.860;6.208;2023-06-04T01:35:06;3.27;;;1.77;;
7525;SDS011;3804;50.860;6.208;2023-06-04T01:37:34;4.17;;;1.90;;
7525;SDS011;3804;50.860;6.208;2023-06-04T01:40:02;2.80;;;1.80;;
7525;SDS011;3804;50.860;6.208;2023-06-04T01:42:29;4.27;;;2.10;;
7525;SDS011;3804;50.860;6.208;2023-06-04T01:44:56;4.87;;;2.00;;
7525;SDS011;3804;50.860;6.208;2023-06-04T01:47:23;4.07;;;2.00;;
7525;SDS011;3804;50.860;6.208;2023-06-04T01:49:49;5.33;;;1.90;;
7525;SDS011;3804;50.860;6.208;2023-06-04T01:52:16;6.47;;;1.83;;
7525;SDS011;3804;50.860;6.208;2023-06-04T01:54:43;4.93;;;2.23;;
7525;SDS011;3804;50.860;6.208;2023-06-04T01:57:10;5.03;;;1.97;;
7525;SDS011;3804;50.860;6.208;2023-06-04T01:59:37;5.57;;;2.27;;
7525;SDS011;3804;50.860;6.208;2023-06-04T02:02:05;3.50;;;1.90;;
7525;SDS011;3804;50.860;6.208;2023-06-04T02:04:32;5.40;;;2.30;;
7525;SDS011;3804;50.860;6.208;2023-06-04T02:07:03;4.13;;;1.80;;
7525;SDS011;3804;50.860;6.208;2023-06-04T02:09:30;4.80;;;1.93;;
7525;SDS011;3804;50.860;6.208;2023-06-04T02:11:57;4.57;;;2.40;;
7525;SDS011;3804;50.860;6.208;2023-06-04T02:14:23;3.40;;;2.23;;
7525;SDS011;3804;50.860;6.208;2023-06-04T02:16:50;5.33;;;2.53;;
7525;SDS011;3804;50.860;6.208;2023-06-04T02:19:17;4.53;;;1.63;;
7525;SDS011;3804;50.860;6.208;2023-06-04T02:21:45;3.77;;;1.90;;
7525;SDS011;3804;50.860;6.208;2023-06-04T02:24:12;4.10;;;2.03;;
7525;SDS011;3804;50.860;6.208;2023-06-04T02:26:39;2.30;;;1.60;;
7525;SDS011;3804;50.860;6.208;2023-06-04T02:29:06;2.77;;;1.67;;
7525;SDS011;3804;50.860;6.208;2023-06-04T02:31:33;3.50;;;1.80;;
7525;SDS011;3804;50.860;6.208;2023-06-04T02:34:00;4.47;;;1.70;;
7525;SDS011;3804;50.860;6.208;2023-06-04T02:36:28;3.43;;;1.90;;
7525;SDS011;3804;50.860;6.208;2023-06-04T02:38:54;2.57;;;1.60;;
7525;SDS011;3804;50.860;6.208;2023-06-04T02:41:23;4.17;;;1.80;;
7525;SDS011;3804;50.860;6.208;2023-06-04T02:43:49;5.83;;;1.80;;
7525;SDS011;3804;50.860;6.208;2023-06-04T02:46:16;3.73;;;2.00;;
7525;SDS011;3804;50.860;6.208;2023-06-04T02:48:43;3.07;;;1.70;;
7525;SDS011;3804;50.860;6.208;2023-06-04T02:51:10;2.93;;;1.70;;
7525;SDS011;3804;50.860;6.208;2023-06-04T02:53:37;3.70;;;1.73;;
7525;SDS011;3804;50.860;6.208;2023-06-04T02:56:03;4.03;;;1.87;;
7525;SDS011;3804;50.860;6.208;2023-06-04T02:58:31;6.87;;;2.40;;
7525;SDS011;3804;50.860;6.208;2023-06-04T03:00:58;4.90;;;1.67;;
7525;SDS011;3804;50.860;6.208;2023-06-04T03:03:25;6.03;;;1.90;;
7525;SDS011;3804;50.860;6.208;2023-06-04T03:05:53;4.43;;;2.20;;
7525;SDS011;3804;50.860;6.208;2023-06-04T03:08:20;4.67;;;2.27;;
7525;SDS011;3804;50.860;6.208;2023-06-04T03:10:48;3.80;;;1.60;;
7525;SDS011;3804;50.860;6.208;2023-06-04T03:13:15;3.80;;;1.83;;
7525;SDS011;3804;50.860;6.208;2023-06-04T03:15:42;3.53;;;1.77;;
7525;SDS011;3804;50.860;6.208;2023-06-04T03:18:11;3.30;;;1.60;;
7525;SDS011;3804;50.860;6.208;2023-06-04T03:20:38;7.00;;;2.23;;
7525;SDS011;3804;50.860;6.208;2023-06-04T03:23:05;3.77;;;1.70;;
7525;SDS011;3804;50.860;6.208;2023-06-04T03:25:32;3.10;;;2.07;;
7525;SDS011;3804;50.860;6.208;2023-06-04T03:27:59;3.87;;;1.87;;
7525;SDS011;3804;50.860;6.208;2023-06-04T03:30:26;3.90;;;1.73;;
7525;SDS011;3804;50.860;6.208;2023-06-04T03:33:01;6.00;;;2.00;;
7525;SDS011;3804;50.860;6.208;2023-06-04T03:35:29;3.73;;;2.00;;
7525;SDS011;3804;50.860;6.208;2023-06-04T03:37:56;5.07;;;1.90;;
7525;SDS011;3804;50.860;6.208;2023-06-04T03:40:23;3.20;;;1.60;;
7525;SDS011;3804;50.860;6.208;2023-06-04T03:42:50;3.47;;;1.73;;
7525;SDS011;3804;50.860;6.208;2023-06-04T03:45:19;2.73;;;1.83;;
7525;SDS011;3804;50.860;6.208;2023-06-04T03:47:46;2.27;;;1.77;;
7525;SDS011;3804;50.860;6.208;2023-06-04T03:50:13;3.60;;;2.10;;
7525;SDS011;3804;50.860;6.208;2023-06-04T03:52:41;3.17;;;1.97;;
7525;SDS011;3804;50.860;6.208;2023-06-04T03:55:08;6.67;;;2.33;;
7525;SDS011;3804;50.860;6.208;2023-06-04T03:57:36;6.77;;;2.50;;
7525;SDS011;3804;50.860;6.208;2023-06-04T04:00:06;3.63;;;1.90;;
7525;SDS011;3804;50.860;6.208;2023-06-04T04:02:39;2.97;;;2.17;;
7525;SDS011;3804;50.860;6.208;2023-06-04T04:05:09;4.10;;;1.87;;
7525;SDS011;3804;50.860;6.208;2023-06-04T04:07:40;4.00;;;1.80;;
7525;SDS011;3804;50.860;6.208;2023-06-04T04:10:08;2.60;;;1.97;;
7525;SDS011;3804;50.860;6.208;2023-06-04T04:12:35;3.73;;;1.90;;
7525;SDS011;3804;50.860;6.208;2023-06-04T04:15:02;6.17;;;2.10;;
7525;SDS011;3804;50.860;6.208;2023-06-04T04:17:29;3.93;;;1.83;;
7525;SDS011;3804;50.860;6.208;2023-06-04T04:19:55;3.63;;;2.20;;
7525;SDS011;3804;50.860;6.208;2023-06-04T04:22:23;5.77;;;1.90;;
7525;SDS011;3804;50.860;6.208;2023-06-04T04:24:50;2.67;;;1.70;;
7525;SDS011;3804;50.860;6.208;2023-06-04T04:27:17;4.73;;;2.10;;
7525;SDS011;3804;50.860;6.208;2023-06-04T04:29:44;4.63;;;1.90;;
7525;SDS011;3804;50.860;6.208;2023-06-04T04:32:12;3.43;;;1.80;;
7525;SDS011;3804;50.860;6.208;2023-06-04T04:34:50;3.40;;;2.07;;
7525;SDS011;3804;50.860;6.208;2023-06-04T04:37:27;4.90;;;2.03;;
7525;SDS011;3804;50.860;6.208;2023-06-04T04:39:56;5.57;;;2.53;;
7525;SDS011;3804;50.860;6.208;2023-06-04T04:42:27;4.33;;;1.63;;
7525;SDS011;3804;50.860;6.208;2023-06-04T04:44:54;3.27;;;1.57;;
7525;SDS011;3804;50.860;6.208;2023-06-04T04:47:24;2.30;;;1.97;;
7525;SDS011;3804;50.860;6.208;2023-06-04T04:49:51;4.17;;;2.00;;
7525;SDS011;3804;50.860;6.208;2023-06-04T04:52:18;4.63;;;1.90;;
7525;SDS011;3804;50.860;6.208;2023-06-04T04:54:46;3.27;;;2.20;;
7525;SDS011;3804;50.860;6.208;2023-06-04T04:57:13;3.03;;;1.83;;
7525;SDS011;3804;50.860;6.208;2023-06-04T04:59:44;4.50;;;1.93;;
7525;SDS011;3804;50.860;6.208;2023-06-04T05:02:11;2.73;;;1.90;;
7525;SDS011;3804;50.860;6.208;2023-06-04T05:04:39;3.63;;;2.00;;
7525;SDS011;3804;50.860;6.208;2023-06-04T05:07:06;3.10;;;1.93;;
7525;SDS011;3804;50.860;6.208;2023-06-04T05:09:33;3.30;;;1.77;;
7525;SDS011;3804;50.860;6.208;2023-06-04T05:12:01;5.47;;;1.93;;
7525;SDS011;3804;50.860;6.208;2023-06-04T05:14:29;3.47;;;1.90;;
7525;SDS011;3804;50.860;6.208;2023-06-04T05:16:56;3.40;;;1.77;;
7525;SDS011;3804;50.860;6.208;2023-06-04T05:19:25;5.60;;;2.00;;
7525;SDS011;3804;50.860;6.208;2023-06-04T05:21:51;5.60;;;2.47;;
7525;SDS011;3804;50.860;6.208;2023-06-04T05:24:18;2.50;;;1.80;;
7525;SDS011;3804;50.860;6.208;2023-06-04T05:26:45;4.93;;;1.93;;
7525;SDS011;3804;50.860;6.208;2023-06-04T05:29:18;3.67;;;2.00;;
7525;SDS011;3804;50.860;6.208;2023-06-04T05:31:46;4.20;;;2.20;;
7525;SDS011;3804;50.860;6.208;2023-06-04T05:34:16;3.83;;;2.03;;
7525;SDS011;3804;50.860;6.208;2023-06-04T05:36:44;5.10;;;2.03;;
7525;SDS011;3804;50.860;6.208;2023-06-04T05:39:11;3.50;;;2.23;;
7525;SDS011;3804;50.860;6.208;2023-06-04T05:42:06;3.77;;;2.10;;
7525;SDS011;3804;50.860;6.208;2023-06-04T05:44:34;2.87;;;2.30;;
7525;SDS011;3804;50.860;6.208;2023-06-04T05:47:01;3.13;;;2.13;;
7525;SDS011;3804;50.860;6.208;2023-06-04T05:49:30;2.77;;;2.20;;
7525;SDS011;3804;50.860;6.208;2023-06-04T05:51:58;2.13;;;1.93;;
7525;SDS011;3804;50.860;6.208;2023-06-04T05:54:28;4.80;;;2.50;;
7525;SDS011;3804;50.860;6.208;2023-06-04T05:56:55;4.83;;;2.30;;
7525;SDS011;3804;50.860;6.208;2023-06-04T05:59:23;4.47;;;2.20;;
7525;SDS011;3804;50.860;6.208;2023-06-04T06:01:50;4.27;;;2.13;;
7525;SDS011;3804;50.860;6.208;2023-06-04T06:04:17;4.20;;;2.30;;
7525;SDS011;3804;50.860;6.208;2023-06-04T06:06:44;2.70;;;2.20;;
7525;SDS011;3804;50.860;6.208;2023-06-04T06:09:14;3.67;;;1.90;;
7525;SDS011;3804;50.860;6.208;2023-06-04T06:11:42;4.03;;;2.10;;
7525;SDS011;3804;50.860;6.208;2023-06-04T06:14:09;4.70;;;2.33;;
7525;SDS011;3804;50.860;6.208;2023-06-04T06:16:36;4.33;;;2.20;;
7525;SDS011;3804;50.860;6.208;2023-06-04T06:19:03;3.50;;;2.40;;
7525;SDS011;3804;50.860;6.208;2023-06-04T06:21:30;3.67;;;2.17;;
7525;SDS011;3804;50.860;6.208;2023-06-04T06:23:57;3.77;;;2.23;;
7525;SDS011;3804;50.860;6.208;2023-06-04T06:26:24;4.53;;;2.20;;
7525;SDS011;3804;50.860;6.208;2023-06-04T06:28:55;5.17;;;2.33;;
7525;SDS011;3804;50.860;6.208;2023-06-04T06:31:23;2.80;;;2.40;;
7525;SDS011;3804;50.860;6.208;2023-06-04T06:33:50;3.67;;;2.10;;
7525;SDS011;3804;50.860;6.208;2023-06-04T06:36:17;2.93;;;1.83;;
7525;SDS011;3804;50.860;6.208;2023-06-04T06:38:45;4.20;;;2.00;;
7525;SDS011;3804;50.860;6.208;2023-06-04T06:41:12;6.00;;;1.90;;
7525;SDS011;3804;50.860;6.208;2023-06-04T06:43:39;3.70;;;2.73;;
7525;SDS011;3804;50.860;6.208;2023-06-04T06:46:06;5.30;;;1.93;;
7525;SDS011;3804;50.860;6.208;2023-06-04T06:48:33;3.60;;;2.40;;
7525;SDS011;3804;50.860;6.208;2023-06-04T06:51:00;4.03;;;2.20;;
7525;SDS011;3804;50.860;6.208;2023-06-04T06:53:26;2.77;;;2.07;;
7525;SDS011;3804;50.860;6.208;2023-06-04T06:55:53;3.37;;;2.10;;
7525;SDS011;3804;50.860;6.208;2023-06-04T06:58:21;4.40;;;2.30;;
7525;SDS011;3804;50.860;6.208;2023-06-04T07:00:48;2.90;;;2.07;;
7525;SDS011;3804;50.860;6.208;2023-06-04T07:03:15;6.43;;;2.37;;
7525;SDS011;3804;50.860;6.208;2023-06-04T07:05:42;2.67;;;2.23;;
7525;SDS011;3804;50.860;6.208;2023-06-04T07:08:09;4.10;;;2.00;;
7525;SDS011;3804;50.860;6.208;2023-06-04T07:10:36;2.77;;;1.63;;
7525;SDS011;3804;50.860;6.208;2023-06-04T07:13:03;4.47;;;1.93;;
7525;SDS011;3804;50.860;6.208;2023-06-04T07:15:29;3.23;;;2.10;;
7525;SDS011;3804;50.860;6.208;2023-06-04T07:17:56;2.20;;;2.00;;
7525;SDS011;3804;50.860;6.208;2023-06-04T07:20:24;4.40;;;2.00;;
7525;SDS011;3804;50.860;6.208;2023-06-04T07:22:51;2.47;;;2.07;;
7525;SDS011;3804;50.860;6.208;2023-06-04T07:25:17;5.17;;;2.00;;
7525;SDS011;3804;50.860;6.208;2023-06-04T07:27:44;3.20;;;2.10;;
7525;SDS011;3804;50.860;6.208;2023-06-04T07:30:11;4.00;;;2.10;;
7525;SDS011;3804;50.860;6.208;2023-06-04T07:32:38;3.40;;;2.17;;
7525;SDS011;3804;50.860;6.208;2023-06-04T07:35:05;4.53;;;2.17;;
7525;SDS011;3804;50.860;6.208;2023-06-04T07:37:32;3.40;;;2.30;;
7525;SDS011;3804;50.860;6.208;2023-06-04T07:39:58;3.13;;;2.13;;
7525;SDS011;3804;50.860;6.208;2023-06-04T07:42:25;1.83;;;1.67;;
7525;SDS011;3804;50.860;6.208;2023-06-04T07:44:52;3.13;;;2.00;;
7525;SDS011;3804;50.860;6.208;2023-06-04T07:47:19;3.90;;;2.17;;
7525;SDS011;3804;50.860;6.208;2023-06-04T07:49:45;4.53;;;2.03;;
7525;SDS011;3804;50.860;6.208;2023-06-04T07:52:28;3.13;;;1.97;;
7525;SDS011;3804;50.860;6.208;2023-06-04T07:54:54;2.37;;;2.17;;
7525;SDS011;3804;50.860;6.208;2023-06-04T07:57:22;3.50;;;2.13;;
7525;SDS011;3804;50.860;6.208;2023-06-04T07:59:49;5.67;;;2.03;;
7525;SDS011;3804;50.860;6.208;2023-06-04T08:02:16;3.97;;;2.30;;
7525;SDS011;3804;50.860;6.208;2023-06-04T08:04:44;5.20;;;2.13;;
7525;SDS011;3804;50.860;6.208;2023-06-04T08:07:11;3.23;;;2.10;;
7525;SDS011;3804;50.860;6.208;2023-06-04T08:09:37;5.63;;;2.10;;
7525;SDS011;3804;50.860;6.208;2023-06-04T08:12:04;4.40;;;2.03;;
7525;SDS011;3804;50.860;6.208;2023-06-04T08:14:35;3.40;;;2.07;;
7525;SDS011;3804;50.860;6.208;2023-06-04T08:17:02;4.43;;;2.20;;
7525;SDS011;3804;50.860;6.208;2023-06-04T08:19:35;4.83;;;2.47;;
7525;SDS011;3804;50.860;6.208;2023-06-04T08:22:05;5.23;;;2.00;;
7525;SDS011;3804;50.860;6.208;2023-06-04T08:24:42;3.97;;;2.03;;
7525;SDS011;3804;50.860;6.208;2023-06-04T08:27:20;3.13;;;1.87;;
7525;SDS011;3804;50.860;6.208;2023-06-04T08:29:52;2.13;;;1.80;;
7525;SDS011;3804;50.860;6.208;2023-06-04T08:32:38;4.13;;;2.03;;
7525;SDS011;3804;50.860;6.208;2023-06-04T08:35:16;3.17;;;1.60;;
7525;SDS011;3804;50.860;6.208;2023-06-04T08:37:42;4.67;;;1.73;;
7525;SDS011;3804;50.860;6.208;2023-06-04T08:40:09;2.77;;;1.60;;
7525;SDS011;3804;50.860;6.208;2023-06-04T08:42:42;4.93;;;1.33;;
7525;SDS011;3804;50.860;6.208;2023-06-04T08:45:12;2.20;;;1.60;;
7525;SDS011;3804;50.860;6.208;2023-06-04T08:47:40;2.73;;;1.70;;
7525;SDS011;3804;50.860;6.208;2023-06-04T08:50:09;12.43;;;2.10;;
7525;SDS011;3804;50.860;6.208;2023-06-04T08:52:37;3.37;;;1.70;;
7525;SDS011;3804;50.860;6.208;2023-06-04T08:55:04;4.13;;;1.67;;
7525;SDS011;3804;50.860;6.208;2023-06-04T08:57:32;3.90;;;1.55;;
7525;SDS011;3804;50.860;6.208;2023-06-04T08:59:58;3.58;;;1.70;;
7525;SDS011;3804;50.860;6.208;2023-06-04T09:02:26;4.80;;;1.60;;
7525;SDS011;3804;50.860;6.208;2023-06-04T09:04:53;2.27;;;1.50;;
7525;SDS011;3804;50.860;6.208;2023-06-04T09:07:20;3.07;;;1.80;;
7525;SDS011;3804;50.860;6.208;2023-06-04T09:09:48;2.10;;;1.52;;
7525;SDS011;3804;50.860;6.208;2023-06-04T09:12:36;3.80;;;1.90;;
7525;SDS011;3804;50.860;6.208;2023-06-04T09:15:03;2.77;;;1.70;;
7525;SDS011;3804;50.860;6.208;2023-06-04T09:17:31;2.43;;;1.40;;
7525;SDS011;3804;50.860;6.208;2023-06-04T09:19:57;2.50;;;1.80;;
7525;SDS011;3804;50.860;6.208;2023-06-04T09:22:31;2.00;;;1.60;;
7525;SDS011;3804;50.860;6.208;2023-06-04T09:24:59;3.90;;;1.58;;
7525;SDS011;3804;50.860;6.208;2023-06-04T09:27:25;3.17;;;1.40;;
7525;SDS011;3804;50.860;6.208;2023-06-04T09:29:55;4.00;;;1.27;;
7525;SDS011;3804;50.860;6.208;2023-06-04T09:32:26;6.80;;;1.50;;
7525;SDS011;3804;50.860;6.208;2023-06-04T09:34:54;3.42;;;1.63;;
7525;SDS011;3804;50.860;6.208;2023-06-04T09:37:21;3.05;;;1.58;;
7525;SDS011;3804;50.860;6.208;2023-06-04T09:39:52;6.72;;;1.73;;
7525;SDS011;3804;50.860;6.208;2023-06-04T09:42:20;2.80;;;1.60;;
7525;SDS011;3804;50.860;6.208;2023-06-04T09:44:47;2.08;;;1.17;;
7525;SDS011;3804;50.860;6.208;2023-06-04T09:47:13;4.40;;;1.33;;
7525;SDS011;3804;50.860;6.208;2023-06-04T09:49:42;2.80;;;1.30;;
7525;SDS011;3804;50.860;6.208;2023-06-04T09:52:09;3.37;;;1.60;;
7525;SDS011;3804;50.860;6.208;2023-06-04T09:54:36;4.30;;;1.67;;
7525;SDS011;3804;50.860;6.208;2023-06-04T09:57:13;2.80;;;1.50;;
7525;SDS011;3804;50.860;6.208;2023-06-04T09:59:43;1.93;;;1.20;;
7525;SDS011;3804;50.860;6.208;2023-06-04T10:02:10;2.50;;;1.40;;
7525;SDS011;3804;50.860;6.208;2023-06-04T10:04:41;1.93;;;1.20;;
7525;SDS011;3804;50.860;6.208;2023-06-04T10:07:09;3.53;;;1.20;;
7525;SDS011;3804;50.860;6.208;2023-06-04T10:09:40;2.57;;;1.30;;
7525;SDS011;3804;50.860;6.208;2023-06-04T10:12:13;3.73;;;1.30;;
7525;SDS011;3804;50.860;6.208;2023-06-04T10:14:44;3.13;;;1.20;;
7525;SDS011;3804;50.860;6.208;2023-06-04T10:17:12;2.70;;;1.30;;
7525;SDS011;3804;50.860;6.208;2023-06-04T10:19:39;1.77;;;1.30;;
7525;SDS011;3804;50.860;6.208;2023-06-04T10:22:09;4.13;;;1.47;;
7525;SDS011;3804;50.860;6.208;2023-06-04T10:24:38;4.15;;;1.17;;
7525;SDS011;3804;50.860;6.208;2023-06-04T10:27:04;4.57;;;1.30;;
7525;SDS011;3804;50.860;6.208;2023-06-04T10:29:37;4.43;;;1.50;;
7525;SDS011;3804;50.860;6.208;2023-06-04T10:32:05;2.77;;;1.27;;
7525;SDS011;3804;50.860;6.208;2023-06-04T10:34:32;2.13;;;1.40;;
7525;SDS011;3804;50.860;6.208;2023-06-04T10:36:59;4.03;;;1.50;;
7525;SDS011;3804;50.860;6.208;2023-06-04T10:39:26;1.27;;;1.03;;
7525;SDS011;3804;50.860;6.208;2023-06-04T10:42:04;3.10;;;1.60;;
7525;SDS011;3804;50.860;6.208;2023-06-04T10:44:32;4.17;;;1.70;;
7525;SDS011;3804;50.860;6.208;2023-06-04T10:46:59;3.77;;;1.67;;
7525;SDS011;3804;50.860;6.208;2023-06-04T10:49:28;3.80;;;1.73;;
7525;SDS011;3804;50.860;6.208;2023-06-04T10:51:56;2.22;;;1.70;;
7525;SDS011;3804;50.860;6.208;2023-06-04T10:54:24;2.33;;;1.60;;
7525;SDS011;3804;50.860;6.208;2023-06-04T10:56:52;2.80;;;1.50;;
7525;SDS011;3804;50.860;6.208;2023-06-04T10:59:19;3.08;;;1.58;;
7525;SDS011;3804;50.860;6.208;2023-06-04T11:01:46;1.23;;;1.13;;
7525;SDS011;3804;50.860;6.208;2023-06-04T11:04:23;3.95;;;1.60;;
7525;SDS011;3804;50.860;6.208;2023-06-04T11:07:03;1.80;;;1.30;;
7525;SDS011;3804;50.860;6.208;2023-06-04T11:09:37;4.37;;;1.40;;
7525;SDS011;3804;50.860;6.208;2023-06-04T11:12:04;2.13;;;1.57;;
7525;SDS011;3804;50.860;6.208;2023-06-04T11:14:32;2.07;;;1.50;;
7525;SDS011;3804;50.860;6.208;2023-06-04T11:17:08;3.70;;;1.63;;
7525;SDS011;3804;50.860;6.208;2023-06-04T11:19:36;2.00;;;1.13;;
7525;SDS011;3804;50.860;6.208;2023-06-04T11:22:04;1.85;;;1.40;;
7525;SDS011;3804;50.860;6.208;2023-06-04T11:24:34;2.70;;;1.23;;
7525;SDS011;3804;50.860;6.208;2023-06-04T11:27:01;2.30;;;1.53;;
7525;SDS011;3804;50.860;6.208;2023-06-04T11:29:43;1.83;;;1.53;;
7525;SDS011;3804;50.860;6.208;2023-06-04T11:32:09;3.40;;;1.70;;
7525;SDS011;3804;50.860;6.208;2023-06-04T11:34:36;3.78;;;1.50;;
7525;SDS011;3804;50.860;6.208;2023-06-04T11:37:07;2.35;;;1.42;;
7525;SDS011;3804;50.860;6.208;2023-06-04T11:39:35;2.53;;;1.50;;
7525;SDS011;3804;50.860;6.208;2023-06-04T11:42:04;4.43;;;1.42;;
7525;SDS011;3804;50.860;6.208;2023-06-04T11:44:33;1.92;;;1.58;;
7525;SDS011;3804;50.860;6.208;2023-06-04T11:47:00;2.67;;;1.50;;
7525;SDS011;3804;50.860;6.208;2023-06-04T11:49:27;1.80;;;1.42;;
7525;SDS011;3804;50.860;6.208;2023-06-04T11:51:54;1.83;;;1.38;;
7525;SDS011;3804;50.860;6.208;2023-06-04T11:54:21;2.30;;;1.53;;
7525;SDS011;3804;50.860;6.208;2023-06-04T11:56:49;2.07;;;1.20;;
7525;SDS011;3804;50.860;6.208;2023-06-04T11:59:17;4.03;;;1.60;;
7525;SDS011;3804;50.860;6.208;2023-06-04T12:01:45;1.50;;;1.40;;
7525;SDS011;3804;50.860;6.208;2023-06-04T12:04:12;2.57;;;1.40;;
7525;SDS011;3804;50.860;6.208;2023-06-04T12:06:50;2.83;;;1.77;;
7525;SDS011;3804;50.860;6.208;2023-06-04T12:09:20;2.83;;;1.40;;
7525;SDS011;3804;50.860;6.208;2023-06-04T12:11:48;3.30;;;1.30;;
7525;SDS011;3804;50.860;6.208;2023-06-04T12:14:16;3.33;;;1.40;;
7525;SDS011;3804;50.860;6.208;2023-06-04T12:16:54;2.17;;;1.37;;
7525;SDS011;3804;50.860;6.208;2023-06-04T12:19:20;3.30;;;1.60;;
7525;SDS011;3804;50.860;6.208;2023-06-04T12:21:58;2.43;;;1.77;;
7525;SDS011;3804;50.860;6.208;2023-06-04T12:24:25;2.90;;;1.30;;
7525;SDS011;3804;50.860;6.208;2023-06-04T12:27:00;1.57;;;1.47;;
7525;SDS011;3804;50.860;6.208;2023-06-04T12:29:27;2.83;;;1.30;;
7525;SDS011;3804;50.860;6.208;2023-06-04T12:32:01;3.23;;;1.50;;
7525;SDS011;3804;50.860;6.208;2023-06-04T12:34:28;2.37;;;1.20;;
7525;SDS011;3804;50.860;6.208;2023-06-04T12:36:55;2.77;;;1.33;;
7525;SDS011;3804;50.860;6.208;2023-06-04T12:39:22;2.60;;;1.70;;
7525;SDS011;3804;50.860;6.208;2023-06-04T12:41:48;3.33;;;1.33;;
7525;SDS011;3804;50.860;6.208;2023-06-04T12:44:15;2.87;;;1.53;;
7525;SDS011;3804;50.860;6.208;2023-06-04T12:46:42;3.20;;;1.83;;
7525;SDS011;3804;50.860;6.208;2023-06-04T12:49:09;1.33;;;1.23;;
7525;SDS011;3804;50.860;6.208;2023-06-04T12:51:36;3.13;;;1.50;;
7525;SDS011;3804;50.860;6.208;2023-06-04T12:54:04;3.90;;;1.60;;
7525;SDS011;3804;50.860;6.208;2023-06-04T12:56:31;1.73;;;1.40;;
7525;SDS011;3804;50.860;6.208;2023-06-04T12:58:58;2.60;;;1.40;;
7525;SDS011;3804;50.860;6.208;2023-06-04T13:01:25;4.80;;;1.80;;
7525;SDS011;3804;50.860;6.208;2023-06-04T13:03:54;2.67;;;1.70;;
7525;SDS011;3804;50.860;6.208;2023-06-04T13:06:22;4.10;;;1.60;;
7525;SDS011;3804;50.860;6.208;2023-06-04T13:08:49;2.10;;;1.40;;
7525;SDS011;3804;50.860;6.208;2023-06-04T13:11:16;1.50;;;1.40;;
7525;SDS011;3804;50.860;6.208;2023-06-04T13:13:44;2.03;;;1.50;;
7525;SDS011;3804;50.860;6.208;2023-06-04T13:16:11;2.03;;;1.70;;
7525;SDS011;3804;50.860;6.208;2023-06-04T13:18:37;1.83;;;1.40;;
7525;SDS011;3804;50.860;6.208;2023-06-04T13:21:04;1.50;;;1.40;;
7525;SDS011;3804;50.860;6.208;2023-06-04T13:23:33;1.63;;;1.53;;
7525;SDS011;3804;50.860;6.208;2023-06-04T13:26:15;2.03;;;1.67;;
7525;SDS011;3804;50.860;6.208;2023-06-04T13:28:42;6.83;;;1.60;;
7525;SDS011;3804;50.860;6.208;2023-06-04T13:31:09;2.13;;;1.53;;
7525;SDS011;3804;50.860;6.208;2023-06-04T13:33:36;1.67;;;1.43;;
7525;SDS011;3804;50.860;6.208;2023-06-04T13:36:03;2.83;;;1.80;;
7525;SDS011;3804;50.860;6.208;2023-06-04T13:38:30;2.70;;;1.50;;
7525;SDS011;3804;50.860;6.208;2023-06-04T13:40:57;2.57;;;1.40;;
7525;SDS011;3804;50.860;6.208;2023-06-04T13:43:24;2.37;;;1.70;;
7525;SDS011;3804;50.860;6.208;2023-06-04T13:45:51;2.33;;;0.97;;
7525;SDS011;3804;50.860;6.208;2023-06-04T13:48:18;2.23;;;1.53;;
7525;SDS011;3804;50.860;6.208;2023-06-04T13:50:45;2.17;;;1.60;;
7525;SDS011;3804;50.860;6.208;2023-06-04T13:53:11;2.70;;;1.50;;
7525;SDS011;3804;50.860;6.208;2023-06-04T13:55:41;2.17;;;1.40;;
7525;SDS011;3804;50.860;6.208;2023-06-04T13:58:08;2.60;;;1.60;;
7525;SDS011;3804;50.860;6.208;2023-06-04T14:00:35;1.67;;;1.50;;
7525;SDS011;3804;50.860;6.208;2023-06-04T14:03:02;2.73;;;1.80;;
7525;SDS011;3804;50.860;6.208;2023-06-04T14:05:29;3.33;;;1.67;;
7525;SDS011;3804;50.860;6.208;2023-06-04T14:07:56;2.07;;;1.50;;
7525;SDS011;3804;50.860;6.208;2023-06-04T14:10:24;6.27;;;1.80;;
7525;SDS011;3804;50.860;6.208;2023-06-04T14:12:51;3.73;;;1.87;;
7525;SDS011;3804;50.860;6.208;2023-06-04T14:15:18;2.90;;;1.73;;
7525;SDS011;3804;50.860;6.208;2023-06-04T14:17:45;2.03;;;1.60;;
7525;SDS011;3804;50.860;6.208;2023-06-04T14:20:11;2.97;;;1.40;;
7525;SDS011;3804;50.860;6.208;2023-06-04T14:22:38;2.73;;;1.67;;
7525;SDS011;3804;50.860;6.208;2023-06-04T14:25:06;2.90;;;1.30;;
7525;SDS011;3804;50.860;6.208;2023-06-04T14:27:33;3.00;;;1.50;;
7525;SDS011;3804;50.860;6.208;2023-06-04T14:30:01;4.03;;;1.30;;
7525;SDS011;3804;50.860;6.208;2023-06-04T14:32:27;3.93;;;1.90;;
7525;SDS011;3804;50.860;6.208;2023-06-04T14:34:54;5.47;;;2.30;;
7525;SDS011;3804;50.860;6.208;2023-06-04T14:37:21;3.80;;;1.77;;
7525;SDS011;3804;50.860;6.208;2023-06-04T14:39:49;1.73;;;1.53;;
7525;SDS011;3804;50.860;6.208;2023-06-04T14:42:15;3.73;;;1.60;;
7525;SDS011;3804;50.860;6.208;2023-06-04T14:44:42;3.47;;;1.70;;
7525;SDS011;3804;50.860;6.208;2023-06-04T14:47:10;4.77;;;1.73;;
7525;SDS011;3804;50.860;6.208;2023-06-04T14:49:37;3.33;;;1.90;;
7525;SDS011;3804;50.860;6.208;2023-06-04T14:52:04;3.93;;;1.67;;
7525;SDS011;3804;50.860;6.208;2023-06-04T14:54:30;2.80;;;1.90;;
7525;SDS011;3804;50.860;6.208;2023-06-04T14:56:57;3.37;;;1.70;;
7525;SDS011;3804;50.860;6.208;2023-06-04T14:59:24;4.17;;;2.57;;
7525;SDS011;3804;50.860;6.208;2023-06-04T15:01:52;2.07;;;1.60;;
7525;SDS011;3804;50.860;6.208;2023-06-04T15:04:19;4.33;;;1.90;;
7525;SDS011;3804;50.860;6.208;2023-06-04T15:06:45;3.47;;;1.90;;
7525;SDS011;3804;50.860;6.208;2023-06-04T15:09:12;2.83;;;1.60;;
7525;SDS011;3804;50.860;6.208;2023-06-04T15:11:39;2.70;;;1.67;;
7525;SDS011;3804;50.860;6.208;2023-06-04T15:14:07;1.63;;;1.40;;
7525;SDS011;3804;50.860;6.208;2023-06-04T15:16:34;3.37;;;1.93;;
7525;SDS011;3804;50.860;6.208;2023-06-04T15:19:01;3.13;;;1.60;;
7525;SDS011;3804;50.860;6.208;2023-06-04T15:21:28;2.30;;;1.60;;
7525;SDS011;3804;50.860;6.208;2023-06-04T15:23:54;3.30;;;1.73;;
7525;SDS011;3804;50.860;6.208;2023-06-04T15:26:21;2.83;;;1.50;;